sensor_id;sensor_type;location;lat;lon;timestamp;P1;durP1;ratioP1;P2;durP2;ratioP2
68250;SDS011;55066;51.560;4.642;2023-08-31T00:00:02;10.70;;;4.28;;
68250;SDS011;55066;51.560;4.642;2023-08-31T00:02:31;9.15;;;3.63;;
68250;SDS011;55066;51.560;4.642;2023-08-31T00:04:57;9.17;;;4.23;;
68250;SDS011;55066;51.560;4.642;2023-08-31T00:07:23;7.30;;;3.55;;
68250;SDS011;55066;51.560;4.642;2023-08-31T00:09:49;10.10;;;4.20;;
68250;SDS011;55066;51.560;4.642;2023-08-31T00:12:15;8.88;;;3.58;;
68250;SDS011;55066;51.560;4.642;2023-08-31T00:14:41;10.20;;;4.20;;
68250;SDS011;55066;51.560;4.642;2023-08-31T00:17:06;7.82;;;3.92;;
68250;SDS011;55066;51.560;4.642;2023-08-31T00:19:32;6.67;;;3.60;;
68250;SDS011;55066;51.560;4.642;2023-08-31T00:21:57;10.20;;;4.30;;
68250;SDS011;55066;51.560;4.642;2023-08-31T00:24:23;7.63;;;3.95;;
68250;SDS011;55066;51.560;4.642;2023-08-31T00:26:55;8.15;;;4.18;;
68250;SDS011;55066;51.560;4.642;2023-08-31T00:29:20;10.02;;;5.00;;
68250;SDS011;55066;51.560;4.642;2023-08-31T00:31:46;11.75;;;4.90;;
68250;SDS011;55066;51.560;4.642;2023-08-31T00:34:17;14.90;;;4.18;;
68250;SDS011;55066;51.560;4.642;2023-08-31T00:36:43;12.80;;;5.07;;
68250;SDS011;55066;51.560;4.642;2023-08-31T00:39:09;9.35;;;5.05;;
68250;SDS011;55066;51.560;4.642;2023-08-31T00:41:38;8.63;;;4.85;;
68250;SDS011;55066;51.560;4.642;2023-08-31T00:44:05;10.33;;;4.63;;
68250;SDS011;55066;51.560;4.642;2023-08-31T00:46:31;10.93;;;4.70;;
68250;SDS011;55066;51.560;4.642;2023-08-31T00:48:57;10.13;;;4.72;;
68250;SDS011;55066;51.560;4.642;2023-08-31T00:51:23;8.70;;;4.32;;
68250;SDS011;55066;51.560;4.642;2023-08-31T00:53:53;9.17;;;5.03;;
68250;SDS011;55066;51.560;4.642;2023-08-31T00:56:18;9.00;;;4.85;;
68250;SDS011;55066;51.560;4.642;2023-08-31T00:58:46;9.93;;;4.72;;
68250;SDS011;55066;51.560;4.642;2023-08-31T01:01:31;9.98;;;5.50;;
68250;SDS011;55066;51.560;4.642;2023-08-31T01:04:19;9.60;;;4.80;;
68250;SDS011;55066;51.560;4.642;2023-08-31T01:06:53;9.88;;;5.20;;
68250;SDS011;55066;51.560;4.642;2023-08-31T01:12:09;9.63;;;4.95;;
68250;SDS011;55066;51.560;4.642;2023-08-31T01:14:50;12.02;;;4.80;;
68250;SDS011;55066;51.560;4.642;2023-08-31T01:17:28;10.00;;;5.07;;
68250;SDS011;55066;51.560;4.642;2023-08-31T01:19:57;12.55;;;5.22;;
68250;SDS011;55066;51.560;4.642;2023-08-31T01:23:11;8.95;;;4.57;;
68250;SDS011;55066;51.560;4.642;2023-08-31T01:25:20;11.55;;;4.97;;
68250;SDS011;55066;51.560;4.642;2023-08-31T01:27:47;10.60;;;4.85;;
68250;SDS011;55066;51.560;4.642;2023-08-31T01:30:14;11.32;;;4.88;;
68250;SDS011;55066;51.560;4.642;2023-08-31T01:32:43;11.02;;;5.45;;
68250;SDS011;55066;51.560;4.642;2023-08-31T01:35:14;12.73;;;5.10;;
68250;SDS011;55066;51.560;4.642;2023-08-31T01:37:53;10.70;;;4.82;;
68250;SDS011;55066;51.560;4.642;2023-08-31T01:40:22;9.35;;;4.63;;
68250;SDS011;55066;51.560;4.642;2023-08-31T01:42:52;12.73;;;4.78;;
68250;SDS011;55066;51.560;4.642;2023-08-31T01:45:20;11.55;;;5.40;;
68250;SDS011;55066;51.560;4.642;2023-08-31T01:47:47;8.40;;;4.90;;
68250;SDS011;55066;51.560;4.642;2023-08-31T01:50:13;9.93;;;4.45;;
68250;SDS011;55066;51.560;4.642;2023-08-31T01:52:39;10.73;;;5.55;;
68250;SDS011;55066;51.560;4.642;2023-08-31T01:55:08;10.80;;;5.60;;
68250;SDS011;55066;51.560;4.642;2023-08-31T01:57:34;11.85;;;5.90;;
68250;SDS011;55066;51.560;4.642;2023-08-31T02:00:09;11.88;;;5.38;;
68250;SDS011;55066;51.560;4.642;2023-08-31T02:02:41;12.20;;;5.65;;
68250;SDS011;55066;51.560;4.642;2023-08-31T02:05:07;10.47;;;5.30;;
68250;SDS011;55066;51.560;4.642;2023-08-31T02:07:33;10.52;;;5.75;;
68250;SDS011;55066;51.560;4.642;2023-08-31T02:09:59;11.50;;;5.57;;
68250;SDS011;55066;51.560;4.642;2023-08-31T02:12:24;11.57;;;5.68;;
68250;SDS011;55066;51.560;4.642;2023-08-31T02:14:50;12.00;;;6.00;;
68250;SDS011;55066;51.560;4.642;2023-08-31T02:17:15;14.13;;;7.10;;
68250;SDS011;55066;51.560;4.642;2023-08-31T02:19:41;16.57;;;6.77;;
68250;SDS011;55066;51.560;4.642;2023-08-31T02:22:07;11.43;;;6.23;;
68250;SDS011;55066;51.560;4.642;2023-08-31T02:24:32;13.23;;;5.90;;
68250;SDS011;55066;51.560;4.642;2023-08-31T02:26:58;14.60;;;6.80;;
68250;SDS011;55066;51.560;4.642;2023-08-31T02:29:25;11.85;;;6.40;;
68250;SDS011;55066;51.560;4.642;2023-08-31T02:31:51;13.90;;;6.43;;
68250;SDS011;55066;51.560;4.642;2023-08-31T02:34:16;14.48;;;6.68;;
68250;SDS011;55066;51.560;4.642;2023-08-31T02:36:42;12.83;;;6.60;;
68250;SDS011;55066;51.560;4.642;2023-08-31T02:39:09;11.32;;;6.82;;
68250;SDS011;55066;51.560;4.642;2023-08-31T02:41:35;12.13;;;6.47;;
68250;SDS011;55066;51.560;4.642;2023-08-31T02:44:03;15.48;;;6.55;;
68250;SDS011;55066;51.560;4.642;2023-08-31T02:46:29;13.53;;;6.67;;
68250;SDS011;55066;51.560;4.642;2023-08-31T02:48:54;13.10;;;6.80;;
68250;SDS011;55066;51.560;4.642;2023-08-31T02:51:20;13.23;;;6.60;;
68250;SDS011;55066;51.560;4.642;2023-08-31T02:53:46;13.53;;;7.03;;
68250;SDS011;55066;51.560;4.642;2023-08-31T02:56:12;15.35;;;6.38;;
68250;SDS011;55066;51.560;4.642;2023-08-31T02:58:38;12.60;;;6.67;;
68250;SDS011;55066;51.560;4.642;2023-08-31T03:01:10;16.73;;;6.88;;
68250;SDS011;55066;51.560;4.642;2023-08-31T03:03:38;12.30;;;6.20;;
68250;SDS011;55066;51.560;4.642;2023-08-31T03:06:06;13.50;;;6.22;;
68250;SDS011;55066;51.560;4.642;2023-08-31T03:08:33;16.13;;;7.10;;
68250;SDS011;55066;51.560;4.642;2023-08-31T03:10:59;13.02;;;6.63;;
68250;SDS011;55066;51.560;4.642;2023-08-31T03:13:24;13.60;;;6.87;;
68250;SDS011;55066;51.560;4.642;2023-08-31T03:15:50;12.13;;;6.43;;
68250;SDS011;55066;51.560;4.642;2023-08-31T03:18:15;12.68;;;6.80;;
68250;SDS011;55066;51.560;4.642;2023-08-31T03:20:41;12.67;;;6.83;;
68250;SDS011;55066;51.560;4.642;2023-08-31T03:23:07;16.00;;;7.00;;
68250;SDS011;55066;51.560;4.642;2023-08-31T03:25:32;14.60;;;6.95;;
68250;SDS011;55066;51.560;4.642;2023-08-31T03:27:58;13.40;;;6.57;;
68250;SDS011;55066;51.560;4.642;2023-08-31T03:30:23;12.80;;;6.70;;
68250;SDS011;55066;51.560;4.642;2023-08-31T03:32:49;14.77;;;6.60;;
68250;SDS011;55066;51.560;4.642;2023-08-31T03:35:15;17.27;;;6.90;;
68250;SDS011;55066;51.560;4.642;2023-08-31T03:37:42;12.60;;;6.50;;
68250;SDS011;55066;51.560;4.642;2023-08-31T03:40:07;11.43;;;6.38;;
68250;SDS011;55066;51.560;4.642;2023-08-31T03:42:34;11.93;;;6.57;;
68250;SDS011;55066;51.560;4.642;2023-08-31T03:45:00;14.70;;;6.10;;
68250;SDS011;55066;51.560;4.642;2023-08-31T03:47:27;15.27;;;6.65;;
68250;SDS011;55066;51.560;4.642;2023-08-31T03:49:53;16.40;;;6.85;;
68250;SDS011;55066;51.560;4.642;2023-08-31T03:52:19;14.67;;;6.53;;
68250;SDS011;55066;51.560;4.642;2023-08-31T03:54:45;13.35;;;6.78;;
68250;SDS011;55066;51.560;4.642;2023-08-31T03:57:11;14.85;;;6.68;;
68250;SDS011;55066;51.560;4.642;2023-08-31T03:59:37;11.63;;;6.40;;
68250;SDS011;55066;51.560;4.642;2023-08-31T04:02:02;10.87;;;5.97;;
68250;SDS011;55066;51.560;4.642;2023-08-31T04:04:29;15.35;;;6.25;;
68250;SDS011;55066;51.560;4.642;2023-08-31T04:06:55;13.23;;;6.30;;
68250;SDS011;55066;51.560;4.642;2023-08-31T04:09:20;14.90;;;6.82;;
68250;SDS011;55066;51.560;4.642;2023-08-31T04:11:46;17.37;;;6.50;;
68250;SDS011;55066;51.560;4.642;2023-08-31T04:14:11;12.13;;;6.07;;
68250;SDS011;55066;51.560;4.642;2023-08-31T04:16:37;14.27;;;6.50;;
68250;SDS011;55066;51.560;4.642;2023-08-31T04:19:03;14.37;;;6.20;;
68250;SDS011;55066;51.560;4.642;2023-08-31T04:21:29;11.07;;;5.55;;
68250;SDS011;55066;51.560;4.642;2023-08-31T04:23:54;12.00;;;5.90;;
68250;SDS011;55066;51.560;4.642;2023-08-31T04:26:20;11.75;;;5.88;;
68250;SDS011;55066;51.560;4.642;2023-08-31T04:28:45;11.50;;;5.80;;
68250;SDS011;55066;51.560;4.642;2023-08-31T04:31:11;11.53;;;5.47;;
68250;SDS011;55066;51.560;4.642;2023-08-31T04:33:38;11.95;;;5.88;;
68250;SDS011;55066;51.560;4.642;2023-08-31T04:36:05;14.70;;;5.85;;
68250;SDS011;55066;51.560;4.642;2023-08-31T04:38:31;11.23;;;6.00;;
68250;SDS011;55066;51.560;4.642;2023-08-31T04:40:58;14.40;;;6.43;;
68250;SDS011;55066;51.560;4.642;2023-08-31T04:43:24;14.55;;;6.68;;
68250;SDS011;55066;51.560;4.642;2023-08-31T04:45:53;13.52;;;6.55;;
68250;SDS011;55066;51.560;4.642;2023-08-31T04:48:19;14.70;;;5.93;;
68250;SDS011;55066;51.560;4.642;2023-08-31T04:50:45;16.83;;;6.30;;
68250;SDS011;55066;51.560;4.642;2023-08-31T04:53:11;14.57;;;6.40;;
68250;SDS011;55066;51.560;4.642;2023-08-31T04:55:36;11.97;;;5.60;;
68250;SDS011;55066;51.560;4.642;2023-08-31T04:58:03;12.60;;;6.15;;
68250;SDS011;55066;51.560;4.642;2023-08-31T05:00:28;13.73;;;6.70;;
68250;SDS011;55066;51.560;4.642;2023-08-31T05:02:55;16.13;;;7.50;;
68250;SDS011;55066;51.560;4.642;2023-08-31T05:05:21;20.63;;;7.95;;
68250;SDS011;55066;51.560;4.642;2023-08-31T05:07:47;17.63;;;7.50;;
68250;SDS011;55066;51.560;4.642;2023-08-31T05:10:15;16.98;;;7.18;;
68250;SDS011;55066;51.560;4.642;2023-08-31T05:12:42;14.17;;;6.67;;
68250;SDS011;55066;51.560;4.642;2023-08-31T05:15:07;19.13;;;7.63;;
68250;SDS011;55066;51.560;4.642;2023-08-31T05:17:34;16.58;;;7.07;;
68250;SDS011;55066;51.560;4.642;2023-08-31T05:20:00;17.35;;;7.40;;
68250;SDS011;55066;51.560;4.642;2023-08-31T05:22:29;14.68;;;7.57;;
68250;SDS011;55066;51.560;4.642;2023-08-31T05:24:54;17.10;;;7.90;;
68250;SDS011;55066;51.560;4.642;2023-08-31T05:27:20;14.63;;;6.80;;
68250;SDS011;55066;51.560;4.642;2023-08-31T05:29:45;17.48;;;7.57;;
68250;SDS011;55066;51.560;4.642;2023-08-31T05:32:12;17.58;;;7.40;;
68250;SDS011;55066;51.560;4.642;2023-08-31T05:34:37;18.02;;;7.93;;
68250;SDS011;55066;51.560;4.642;2023-08-31T05:37:04;16.90;;;8.35;;
68250;SDS011;55066;51.560;4.642;2023-08-31T05:39:30;19.40;;;7.47;;
68250;SDS011;55066;51.560;4.642;2023-08-31T05:41:56;17.13;;;7.93;;
68250;SDS011;55066;51.560;4.642;2023-08-31T05:44:21;18.53;;;8.47;;
68250;SDS011;55066;51.560;4.642;2023-08-31T05:46:47;19.20;;;7.95;;
68250;SDS011;55066;51.560;4.642;2023-08-31T05:49:13;15.90;;;7.63;;
68250;SDS011;55066;51.560;4.642;2023-08-31T05:51:38;16.67;;;7.22;;
68250;SDS011;55066;51.560;4.642;2023-08-31T05:54:04;17.17;;;7.63;;
68250;SDS011;55066;51.560;4.642;2023-08-31T05:56:30;19.45;;;7.47;;
68250;SDS011;55066;51.560;4.642;2023-08-31T05:58:55;17.57;;;7.60;;
68250;SDS011;55066;51.560;4.642;2023-08-31T06:01:21;22.60;;;8.47;;
68250;SDS011;55066;51.560;4.642;2023-08-31T06:03:49;18.48;;;8.32;;
68250;SDS011;55066;51.560;4.642;2023-08-31T06:06:15;28.30;;;11.97;;
68250;SDS011;55066;51.560;4.642;2023-08-31T06:08:40;21.92;;;9.57;;
68250;SDS011;55066;51.560;4.642;2023-08-31T06:11:08;22.45;;;9.75;;
68250;SDS011;55066;51.560;4.642;2023-08-31T06:13:34;22.05;;;9.65;;
68250;SDS011;55066;51.560;4.642;2023-08-31T06:15:59;21.93;;;9.57;;
68250;SDS011;55066;51.560;4.642;2023-08-31T06:18:25;23.45;;;8.70;;
68250;SDS011;55066;51.560;4.642;2023-08-31T06:20:51;18.07;;;9.47;;
68250;SDS011;55066;51.560;4.642;2023-08-31T06:23:17;16.27;;;8.13;;
68250;SDS011;55066;51.560;4.642;2023-08-31T06:25:42;20.90;;;8.10;;
68250;SDS011;55066;51.560;4.642;2023-08-31T06:28:08;23.23;;;8.93;;
68250;SDS011;55066;51.560;4.642;2023-08-31T06:30:36;18.30;;;7.88;;
68250;SDS011;55066;51.560;4.642;2023-08-31T06:33:02;23.52;;;8.70;;
68250;SDS011;55066;51.560;4.642;2023-08-31T06:35:28;20.57;;;8.50;;
68250;SDS011;55066;51.560;4.642;2023-08-31T06:37:53;16.98;;;8.43;;
68250;SDS011;55066;51.560;4.642;2023-08-31T06:40:21;24.00;;;10.45;;
68250;SDS011;55066;51.560;4.642;2023-08-31T06:42:47;26.55;;;11.55;;
68250;SDS011;55066;51.560;4.642;2023-08-31T06:45:13;23.48;;;9.60;;
68250;SDS011;55066;51.560;4.642;2023-08-31T06:47:38;22.23;;;9.73;;
68250;SDS011;55066;51.560;4.642;2023-08-31T06:50:04;22.07;;;9.80;;
68250;SDS011;55066;51.560;4.642;2023-08-31T06:52:30;22.80;;;9.23;;
68250;SDS011;55066;51.560;4.642;2023-08-31T06:54:55;24.77;;;9.00;;
68250;SDS011;55066;51.560;4.642;2023-08-31T06:57:25;20.33;;;8.50;;
68250;SDS011;55066;51.560;4.642;2023-08-31T06:59:51;24.63;;;9.20;;
68250;SDS011;55066;51.560;4.642;2023-08-31T07:02:17;23.20;;;9.68;;
68250;SDS011;55066;51.560;4.642;2023-08-31T07:04:47;23.15;;;8.77;;
68250;SDS011;55066;51.560;4.642;2023-08-31T07:07:13;25.57;;;9.43;;
68250;SDS011;55066;51.560;4.642;2023-08-31T07:09:42;28.05;;;10.05;;
68250;SDS011;55066;51.560;4.642;2023-08-31T07:12:09;27.77;;;9.07;;
68250;SDS011;55066;51.560;4.642;2023-08-31T07:14:35;22.92;;;8.07;;
68250;SDS011;55066;51.560;4.642;2023-08-31T07:17:00;22.00;;;8.30;;
68250;SDS011;55066;51.560;4.642;2023-08-31T07:19:26;24.27;;;9.10;;
68250;SDS011;55066;51.560;4.642;2023-08-31T07:21:52;20.15;;;9.10;;
68250;SDS011;55066;51.560;4.642;2023-08-31T07:24:20;26.63;;;9.45;;
68250;SDS011;55066;51.560;4.642;2023-08-31T07:26:47;19.13;;;8.43;;
68250;SDS011;55066;51.560;4.642;2023-08-31T07:29:13;23.03;;;8.23;;
68250;SDS011;55066;51.560;4.642;2023-08-31T07:31:39;19.15;;;8.18;;
68250;SDS011;55066;51.560;4.642;2023-08-31T07:34:04;20.13;;;8.03;;
68250;SDS011;55066;51.560;4.642;2023-08-31T07:36:30;22.48;;;8.85;;
68250;SDS011;55066;51.560;4.642;2023-08-31T07:38:57;29.35;;;10.65;;
68250;SDS011;55066;51.560;4.642;2023-08-31T07:41:23;25.73;;;10.90;;
68250;SDS011;55066;51.560;4.642;2023-08-31T07:43:48;35.23;;;11.60;;
68250;SDS011;55066;51.560;4.642;2023-08-31T07:46:14;29.10;;;12.23;;
68250;SDS011;55066;51.560;4.642;2023-08-31T07:48:42;30.17;;;11.77;;
68250;SDS011;55066;51.560;4.642;2023-08-31T07:51:08;35.17;;;12.30;;
68250;SDS011;55066;51.560;4.642;2023-08-31T07:53:34;22.67;;;9.47;;
68250;SDS011;55066;51.560;4.642;2023-08-31T07:55:59;21.13;;;10.10;;
68250;SDS011;55066;51.560;4.642;2023-08-31T07:58:25;26.48;;;10.23;;
68250;SDS011;55066;51.560;4.642;2023-08-31T08:00:55;25.23;;;9.50;;
68250;SDS011;55066;51.560;4.642;2023-08-31T08:03:21;22.40;;;9.70;;
68250;SDS011;55066;51.560;4.642;2023-08-31T08:05:47;19.80;;;8.70;;
68250;SDS011;55066;51.560;4.642;2023-08-31T08:08:13;28.20;;;9.77;;
68250;SDS011;55066;51.560;4.642;2023-08-31T08:10:38;22.23;;;9.88;;
68250;SDS011;55066;51.560;4.642;2023-08-31T08:13:04;23.33;;;10.20;;
68250;SDS011;55066;51.560;4.642;2023-08-31T08:15:30;22.63;;;9.93;;
68250;SDS011;55066;51.560;4.642;2023-08-31T08:17:56;24.90;;;11.13;;
68250;SDS011;55066;51.560;4.642;2023-08-31T08:20:25;21.42;;;10.27;;
68250;SDS011;55066;51.560;4.642;2023-08-31T08:22:51;27.48;;;11.52;;
68250;SDS011;55066;51.560;4.642;2023-08-31T08:25:21;26.05;;;10.65;;
68250;SDS011;55066;51.560;4.642;2023-08-31T08:27:47;28.27;;;12.30;;
68250;SDS011;55066;51.560;4.642;2023-08-31T08:30:13;23.58;;;10.32;;
68250;SDS011;55066;51.560;4.642;2023-08-31T08:32:40;20.37;;;9.27;;
68250;SDS011;55066;51.560;4.642;2023-08-31T08:35:06;19.27;;;6.45;;
68250;SDS011;55066;51.560;4.642;2023-08-31T08:37:32;14.02;;;5.85;;
68250;SDS011;55066;51.560;4.642;2023-08-31T08:39:58;15.30;;;6.40;;
68250;SDS011;55066;51.560;4.642;2023-08-31T08:42:24;13.40;;;6.13;;
68250;SDS011;55066;51.560;4.642;2023-08-31T08:44:51;13.15;;;5.80;;
68250;SDS011;55066;51.560;4.642;2023-08-31T08:47:17;15.15;;;6.18;;
68250;SDS011;55066;51.560;4.642;2023-08-31T08:49:43;12.30;;;5.07;;
68250;SDS011;55066;51.560;4.642;2023-08-31T08:52:09;13.52;;;5.38;;
68250;SDS011;55066;51.560;4.642;2023-08-31T08:54:36;9.15;;;4.25;;
68250;SDS011;55066;51.560;4.642;2023-08-31T08:57:02;12.63;;;5.43;;
68250;SDS011;55066;51.560;4.642;2023-08-31T08:59:29;17.30;;;5.95;;
68250;SDS011;55066;51.560;4.642;2023-08-31T09:01:56;18.92;;;5.07;;
68250;SDS011;55066;51.560;4.642;2023-08-31T09:04:22;11.02;;;4.40;;
68250;SDS011;55066;51.560;4.642;2023-08-31T09:06:47;9.67;;;4.40;;
68250;SDS011;55066;51.560;4.642;2023-08-31T09:09:13;9.02;;;4.07;;
68250;SDS011;55066;51.560;4.642;2023-08-31T09:11:38;11.40;;;4.90;;
68250;SDS011;55066;51.560;4.642;2023-08-31T09:14:16;11.13;;;5.07;;
68250;SDS011;55066;51.560;4.642;2023-08-31T09:16:50;9.90;;;4.38;;
68250;SDS011;55066;51.560;4.642;2023-08-31T09:21:49;9.05;;;4.22;;
68250;SDS011;55066;51.560;4.642;2023-08-31T09:24:16;8.07;;;3.47;;
68250;SDS011;55066;51.560;4.642;2023-08-31T09:26:45;9.23;;;3.88;;
68250;SDS011;55066;51.560;4.642;2023-08-31T09:29:12;8.90;;;3.72;;
68250;SDS011;55066;51.560;4.642;2023-08-31T09:31:41;7.20;;;3.17;;
68250;SDS011;55066;51.560;4.642;2023-08-31T09:34:08;9.57;;;3.65;;
68250;SDS011;55066;51.560;4.642;2023-08-31T09:36:33;7.75;;;3.25;;
68250;SDS011;55066;51.560;4.642;2023-08-31T09:38:59;7.40;;;3.27;;
68250;SDS011;55066;51.560;4.642;2023-08-31T09:41:24;8.30;;;3.03;;
68250;SDS011;55066;51.560;4.642;2023-08-31T09:43:50;8.65;;;2.85;;
68250;SDS011;55066;51.560;4.642;2023-08-31T09:46:16;6.53;;;2.63;;
68250;SDS011;55066;51.560;4.642;2023-08-31T09:48:42;7.15;;;2.78;;
68250;SDS011;55066;51.560;4.642;2023-08-31T09:51:09;7.72;;;3.08;;
68250;SDS011;55066;51.560;4.642;2023-08-31T09:53:36;7.50;;;2.70;;
68250;SDS011;55066;51.560;4.642;2023-08-31T09:56:04;16.77;;;2.97;;
68250;SDS011;55066;51.560;4.642;2023-08-31T09:58:30;8.63;;;2.90;;
68250;SDS011;55066;51.560;4.642;2023-08-31T10:00:56;8.63;;;3.33;;
68250;SDS011;55066;51.560;4.642;2023-08-31T10:03:22;7.87;;;3.10;;
68250;SDS011;55066;51.560;4.642;2023-08-31T10:05:49;7.43;;;2.80;;
68250;SDS011;55066;51.560;4.642;2023-08-31T10:08:15;7.45;;;2.60;;
68250;SDS011;55066;51.560;4.642;2023-08-31T10:10:41;6.72;;;2.50;;
68250;SDS011;55066;51.560;4.642;2023-08-31T10:13:07;7.33;;;1.93;;
68250;SDS011;55066;51.560;4.642;2023-08-31T10:15:34;6.22;;;2.15;;
68250;SDS011;55066;51.560;4.642;2023-08-31T10:18:01;6.30;;;1.90;;
68250;SDS011;55066;51.560;4.642;2023-08-31T10:20:28;5.72;;;2.00;;
68250;SDS011;55066;51.560;4.642;2023-08-31T10:22:59;4.32;;;1.98;;
68250;SDS011;55066;51.560;4.642;2023-08-31T10:28:23;7.65;;;2.28;;
68250;SDS011;55066;51.560;4.642;2023-08-31T10:31:03;6.03;;;2.13;;
68250;SDS011;55066;51.560;4.642;2023-08-31T10:33:30;6.85;;;2.20;;
68250;SDS011;55066;51.560;4.642;2023-08-31T10:36:16;5.78;;;2.03;;
68250;SDS011;55066;51.560;4.642;2023-08-31T10:38:44;5.57;;;2.13;;
68250;SDS011;55066;51.560;4.642;2023-08-31T10:43:43;9.60;;;2.50;;
68250;SDS011;55066;51.560;4.642;2023-08-31T10:46:17;6.40;;;2.15;;
68250;SDS011;55066;51.560;4.642;2023-08-31T11:02:30;4.25;;;2.20;;
68250;SDS011;55066;51.560;4.642;2023-08-31T11:07:41;5.43;;;2.33;;
68250;SDS011;55066;51.560;4.642;2023-08-31T11:10:10;5.90;;;2.50;;
68250;SDS011;55066;51.560;4.642;2023-08-31T11:12:48;8.10;;;3.58;;
68250;SDS011;55066;51.560;4.642;2023-08-31T11:15:18;5.65;;;2.30;;
68250;SDS011;55066;51.560;4.642;2023-08-31T11:17:46;8.40;;;3.00;;
68250;SDS011;55066;51.560;4.642;2023-08-31T11:20:18;7.65;;;2.25;;
68250;SDS011;55066;51.560;4.642;2023-08-31T11:22:46;7.47;;;2.50;;
68250;SDS011;55066;51.560;4.642;2023-08-31T11:25:15;6.68;;;2.13;;
68250;SDS011;55066;51.560;4.642;2023-08-31T11:27:41;5.88;;;2.47;;
68250;SDS011;55066;51.560;4.642;2023-08-31T11:30:16;4.10;;;2.17;;
68250;SDS011;55066;51.560;4.642;2023-08-31T11:32:45;7.57;;;2.83;;
68250;SDS011;55066;51.560;4.642;2023-08-31T11:35:15;7.80;;;2.67;;
68250;SDS011;55066;51.560;4.642;2023-08-31T11:37:42;9.07;;;3.20;;
68250;SDS011;55066;51.560;4.642;2023-08-31T11:40:08;12.50;;;5.43;;
68250;SDS011;55066;51.560;4.642;2023-08-31T11:42:34;6.95;;;2.83;;
68250;SDS011;55066;51.560;4.642;2023-08-31T11:45:00;9.37;;;2.77;;
68250;SDS011;55066;51.560;4.642;2023-08-31T11:47:30;8.10;;;2.80;;
68250;SDS011;55066;51.560;4.642;2023-08-31T11:49:56;11.20;;;2.20;;
68250;SDS011;55066;51.560;4.642;2023-08-31T11:52:23;5.30;;;2.28;;
68250;SDS011;55066;51.560;4.642;2023-08-31T11:54:51;5.60;;;2.80;;
68250;SDS011;55066;51.560;4.642;2023-08-31T11:57:19;5.00;;;2.20;;
68250;SDS011;55066;51.560;4.642;2023-08-31T11:59:50;6.40;;;2.30;;
68250;SDS011;55066;51.560;4.642;2023-08-31T12:02:16;6.63;;;2.50;;
68250;SDS011;55066;51.560;4.642;2023-08-31T12:04:44;8.05;;;2.40;;
68250;SDS011;55066;51.560;4.642;2023-08-31T12:07:10;7.72;;;2.53;;
68250;SDS011;55066;51.560;4.642;2023-08-31T12:09:35;6.90;;;2.70;;
68250;SDS011;55066;51.560;4.642;2023-08-31T12:12:01;6.10;;;2.37;;
68250;SDS011;55066;51.560;4.642;2023-08-31T12:14:27;5.05;;;2.38;;
68250;SDS011;55066;51.560;4.642;2023-08-31T12:17:00;6.83;;;2.50;;
68250;SDS011;55066;51.560;4.642;2023-08-31T12:19:28;6.53;;;2.90;;
68250;SDS011;55066;51.560;4.642;2023-08-31T12:21:54;8.63;;;2.60;;
68250;SDS011;55066;51.560;4.642;2023-08-31T12:24:20;8.73;;;2.83;;
68250;SDS011;55066;51.560;4.642;2023-08-31T12:26:47;7.28;;;2.72;;
68250;SDS011;55066;51.560;4.642;2023-08-31T12:29:14;9.82;;;3.25;;
68250;SDS011;55066;51.560;4.642;2023-08-31T12:31:39;11.80;;;3.57;;
68250;SDS011;55066;51.560;4.642;2023-08-31T12:34:05;8.57;;;3.60;;
68250;SDS011;55066;51.560;4.642;2023-08-31T12:36:32;12.00;;;4.50;;
68250;SDS011;55066;51.560;4.642;2023-08-31T12:38:58;14.88;;;7.10;;
68250;SDS011;55066;51.560;4.642;2023-08-31T12:41:26;9.93;;;4.13;;
68250;SDS011;55066;51.560;4.642;2023-08-31T12:43:53;9.27;;;3.78;;
68250;SDS011;55066;51.560;4.642;2023-08-31T12:46:19;10.90;;;4.20;;
68250;SDS011;55066;51.560;4.642;2023-08-31T12:48:44;9.05;;;3.58;;
68250;SDS011;55066;51.560;4.642;2023-08-31T12:51:10;8.20;;;3.80;;
68250;SDS011;55066;51.560;4.642;2023-08-31T12:53:38;7.90;;;3.53;;
68250;SDS011;55066;51.560;4.642;2023-08-31T12:56:05;7.20;;;3.88;;
68250;SDS011;55066;51.560;4.642;2023-08-31T12:58:31;7.22;;;3.83;;
68250;SDS011;55066;51.560;4.642;2023-08-31T13:01:00;6.10;;;3.38;;
68250;SDS011;55066;51.560;4.642;2023-08-31T13:03:26;6.47;;;3.58;;
68250;SDS011;55066;51.560;4.642;2023-08-31T13:05:52;7.30;;;3.43;;
68250;SDS011;55066;51.560;4.642;2023-08-31T13:08:18;6.90;;;3.55;;
68250;SDS011;55066;51.560;4.642;2023-08-31T13:10:50;7.67;;;3.27;;
68250;SDS011;55066;51.560;4.642;2023-08-31T13:13:17;6.80;;;3.20;;
68250;SDS011;55066;51.560;4.642;2023-08-31T13:15:45;6.40;;;3.33;;
68250;SDS011;55066;51.560;4.642;2023-08-31T13:18:11;7.20;;;3.30;;
68250;SDS011;55066;51.560;4.642;2023-08-31T13:20:37;7.07;;;3.20;;
68250;SDS011;55066;51.560;4.642;2023-08-31T13:23:02;6.13;;;3.38;;
68250;SDS011;55066;51.560;4.642;2023-08-31T13:25:28;7.17;;;3.40;;
68250;SDS011;55066;51.560;4.642;2023-08-31T13:27:54;10.13;;;4.18;;
68250;SDS011;55066;51.560;4.642;2023-08-31T13:30:20;11.07;;;6.37;;
68250;SDS011;55066;51.560;4.642;2023-08-31T13:32:45;10.48;;;4.55;;
68250;SDS011;55066;51.560;4.642;2023-08-31T13:35:11;8.63;;;4.03;;
68250;SDS011;55066;51.560;4.642;2023-08-31T13:37:36;7.95;;;3.55;;
68250;SDS011;55066;51.560;4.642;2023-08-31T13:40:02;7.83;;;3.20;;
68250;SDS011;55066;51.560;4.642;2023-08-31T13:42:36;8.52;;;3.10;;
68250;SDS011;55066;51.560;4.642;2023-08-31T13:45:06;5.45;;;2.45;;
68250;SDS011;55066;51.560;4.642;2023-08-31T13:47:33;5.57;;;2.30;;
68250;SDS011;55066;51.560;4.642;2023-08-31T13:49:59;9.27;;;2.60;;
68250;SDS011;55066;51.560;4.642;2023-08-31T13:52:25;7.03;;;2.78;;
68250;SDS011;55066;51.560;4.642;2023-08-31T13:54:51;5.20;;;2.30;;
68250;SDS011;55066;51.560;4.642;2023-08-31T13:57:17;7.13;;;2.50;;
68250;SDS011;55066;51.560;4.642;2023-08-31T13:59:43;6.22;;;2.35;;
68250;SDS011;55066;51.560;4.642;2023-08-31T14:02:09;6.93;;;2.60;;
68250;SDS011;55066;51.560;4.642;2023-08-31T14:04:35;5.68;;;2.30;;
68250;SDS011;55066;51.560;4.642;2023-08-31T14:07:00;6.17;;;2.30;;
68250;SDS011;55066;51.560;4.642;2023-08-31T14:09:26;5.40;;;2.20;;
68250;SDS011;55066;51.560;4.642;2023-08-31T14:11:52;6.13;;;2.40;;
68250;SDS011;55066;51.560;4.642;2023-08-31T14:14:19;6.45;;;2.30;;
68250;SDS011;55066;51.560;4.642;2023-08-31T14:16:45;6.00;;;2.15;;
68250;SDS011;55066;51.560;4.642;2023-08-31T14:19:11;7.57;;;2.10;;
68250;SDS011;55066;51.560;4.642;2023-08-31T14:21:36;4.93;;;1.90;;
68250;SDS011;55066;51.560;4.642;2023-08-31T14:24:02;6.83;;;2.50;;
68250;SDS011;55066;51.560;4.642;2023-08-31T14:26:29;4.05;;;2.30;;
68250;SDS011;55066;51.560;4.642;2023-08-31T14:28:54;5.57;;;2.30;;
68250;SDS011;55066;51.560;4.642;2023-08-31T14:31:20;6.13;;;2.07;;
68250;SDS011;55066;51.560;4.642;2023-08-31T14:33:47;5.97;;;2.35;;
68250;SDS011;55066;51.560;4.642;2023-08-31T14:36:14;5.82;;;2.10;;
68250;SDS011;55066;51.560;4.642;2023-08-31T14:38:40;6.10;;;2.50;;
68250;SDS011;55066;51.560;4.642;2023-08-31T14:41:05;6.47;;;2.60;;
68250;SDS011;55066;51.560;4.642;2023-08-31T14:43:32;5.70;;;2.13;;
68250;SDS011;55066;51.560;4.642;2023-08-31T14:45:58;5.32;;;2.17;;
68250;SDS011;55066;51.560;4.642;2023-08-31T14:48:26;5.60;;;2.10;;
68250;SDS011;55066;51.560;4.642;2023-08-31T14:50:55;5.95;;;2.17;;
68250;SDS011;55066;51.560;4.642;2023-08-31T14:53:23;4.20;;;2.08;;
68250;SDS011;55066;51.560;4.642;2023-08-31T14:55:51;6.80;;;1.90;;
68250;SDS011;55066;51.560;4.642;2023-08-31T14:58:17;5.38;;;2.40;;
68250;SDS011;55066;51.560;4.642;2023-08-31T15:00:43;6.27;;;2.33;;
68250;SDS011;55066;51.560;4.642;2023-08-31T15:03:10;6.93;;;2.90;;